sensor_id;sensor_type;location;lat;lon;timestamp;temperature;humidity
67820;DHT22;54618;52.018;5.576;2022-08-21T00:01:26;22.60;64.30
67820;DHT22;54618;52.018;5.576;2022-08-21T00:03:54;22.60;64.30
67820;DHT22;54618;52.018;5.576;2022-08-21T00:06:20;22.60;64.30
67820;DHT22;54618;52.018;5.576;2022-08-21T00:08:46;22.60;64.30
67820;DHT22;54618;52.018;5.576;2022-08-21T00:11:11;22.60;64.30
67820;DHT22;54618;52.018;5.576;2022-08-21T00:13:37;22.60;64.30
67820;DHT22;54618;52.018;5.576;2022-08-21T00:16:03;22.60;64.30
67820;DHT22;54618;52.018;5.576;2022-08-21T00:18:29;22.60;64.30
67820;DHT22;54618;52.018;5.576;2022-08-21T00:20:55;22.60;64.30
67820;DHT22;54618;52.018;5.576;2022-08-21T00:23:21;22.60;64.30
67820;DHT22;54618;52.018;5.576;2022-08-21T00:25:47;22.60;64.30
67820;DHT22;54618;52.018;5.576;2022-08-21T00:28:14;22.60;64.30
67820;DHT22;54618;52.018;5.576;2022-08-21T00:30:41;22.60;64.30
67820;DHT22;54618;52.018;5.576;2022-08-21T00:33:08;22.60;64.30
67820;DHT22;54618;52.018;5.576;2022-08-21T00:35:37;22.60;64.40
67820;DHT22;54618;52.018;5.576;2022-08-21T00:38:04;22.60;64.30
67820;DHT22;54618;52.018;5.576;2022-08-21T00:40:53;22.60;64.40
67820;DHT22;54618;52.018;5.576;2022-08-21T00:43:22;22.60;64.30
67820;DHT22;54618;52.018;5.576;2022-08-21T00:45:49;22.60;64.90
67820;DHT22;54618;52.018;5.576;2022-08-21T00:48:15;22.60;64.30
67820;DHT22;54618;52.018;5.576;2022-08-21T00:51:00;22.60;64.30
67820;DHT22;54618;52.018;5.576;2022-08-21T00:53:27;22.60;64.30
67820;DHT22;54618;52.018;5.576;2022-08-21T00:55:54;22.60;64.30
67820;DHT22;54618;52.018;5.576;2022-08-21T00:58:21;22.60;64.30
67820;DHT22;54618;52.018;5.576;2022-08-21T01:00:49;22.60;64.30
67820;DHT22;54618;52.018;5.576;2022-08-21T01:03:18;22.60;64.30
67820;DHT22;54618;52.018;5.576;2022-08-21T01:05:45;22.60;64.30
67820;DHT22;54618;52.018;5.576;2022-08-21T01:08:13;22.60;64.30
67820;DHT22;54618;52.018;5.576;2022-08-21T01:10:40;22.60;64.30
67820;DHT22;54618;52.018;5.576;2022-08-21T01:13:07;22.60;64.30
67820;DHT22;54618;52.018;5.576;2022-08-21T01:15:37;22.60;64.30
67820;DHT22;54618;52.018;5.576;2022-08-21T01:18:05;22.60;64.30
67820;DHT22;54618;52.018;5.576;2022-08-21T01:20:32;22.60;64.30
67820;DHT22;54618;52.018;5.576;2022-08-21T01:22:58;22.60;64.30
67820;DHT22;54618;52.018;5.576;2022-08-21T01:25:24;22.60;64.30
67820;DHT22;54618;52.018;5.576;2022-08-21T01:27:50;22.60;64.30
67820;DHT22;54618;52.018;5.576;2022-08-21T01:30:20;22.60;64.20
67820;DHT22;54618;52.018;5.576;2022-08-21T01:32:48;22.60;64.20
67820;DHT22;54618;52.018;5.576;2022-08-21T01:35:16;22.60;64.20
67820;DHT22;54618;52.018;5.576;2022-08-21T01:37:42;22.60;64.20
67820;DHT22;54618;52.018;5.576;2022-08-21T01:40:09;22.60;64.20
67820;DHT22;54618;52.018;5.576;2022-08-21T01:42:36;22.60;64.20
67820;DHT22;54618;52.018;5.576;2022-08-21T01:45:03;22.60;64.20
67820;DHT22;54618;52.018;5.576;2022-08-21T01:47:29;22.60;64.30
67820;DHT22;54618;52.018;5.576;2022-08-21T01:49:54;22.60;64.20
67820;DHT22;54618;52.018;5.576;2022-08-21T01:52:20;22.60;64.30
67820;DHT22;54618;52.018;5.576;2022-08-21T01:54:46;22.60;64.20
67820;DHT22;54618;52.018;5.576;2022-08-21T01:57:12;22.60;64.20
67820;DHT22;54618;52.018;5.576;2022-08-21T01:59:38;22.60;64.20
67820;DHT22;54618;52.018;5.576;2022-08-21T02:02:05;22.50;64.10
67820;DHT22;54618;52.018;5.576;2022-08-21T02:04:31;22.60;64.20
67820;DHT22;54618;52.018;5.576;2022-08-21T02:06:57;22.50;64.10
67820;DHT22;54618;52.018;5.576;2022-08-21T02:09:22;22.60;64.20
67820;DHT22;54618;52.018;5.576;2022-08-21T02:11:49;22.60;64.20
67820;DHT22;54618;52.018;5.576;2022-08-21T02:14:15;22.50;64.10
67820;DHT22;54618;52.018;5.576;2022-08-21T02:16:42;22.60;64.20
67820;DHT22;54618;52.018;5.576;2022-08-21T02:19:08;22.50;64.10
67820;DHT22;54618;52.018;5.576;2022-08-21T02:21:34;22.50;64.10
67820;DHT22;54618;52.018;5.576;2022-08-21T02:23:59;22.50;64.10
67820;DHT22;54618;52.018;5.576;2022-08-21T02:26:25;22.50;64.10
67820;DHT22;54618;52.018;5.576;2022-08-21T02:28:51;22.50;64.10
67820;DHT22;54618;52.018;5.576;2022-08-21T02:31:17;22.50;64.10
67820;DHT22;54618;52.018;5.576;2022-08-21T02:33:43;22.50;64.10
67820;DHT22;54618;52.018;5.576;2022-08-21T02:36:09;22.50;64.10
67820;DHT22;54618;52.018;5.576;2022-08-21T02:38:37;22.50;64.10
67820;DHT22;54618;52.018;5.576;2022-08-21T02:41:15;22.50;64.00
67820;DHT22;54618;52.018;5.576;2022-08-21T02:43:42;22.50;64.00
67820;DHT22;54618;52.018;5.576;2022-08-21T02:46:09;22.60;64.10
67820;DHT22;54618;52.018;5.576;2022-08-21T02:48:36;22.50;64.00
67820;DHT22;54618;52.018;5.576;2022-08-21T02:51:14;22.50;64.00
67820;DHT22;54618;52.018;5.576;2022-08-21T02:53:42;22.50;64.00
67820;DHT22;54618;52.018;5.576;2022-08-21T02:56:09;22.50;63.90
67820;DHT22;54618;52.018;5.576;2022-08-21T02:58:40;22.50;63.90
67820;DHT22;54618;52.018;5.576;2022-08-21T03:01:07;22.50;64.00
67820;DHT22;54618;52.018;5.576;2022-08-21T03:03:35;22.50;63.90
67820;DHT22;54618;52.018;5.576;2022-08-21T03:06:01;22.50;63.90
67820;DHT22;54618;52.018;5.576;2022-08-21T03:08:26;22.50;63.90
67820;DHT22;54618;52.018;5.576;2022-08-21T03:10:52;22.50;63.90
67820;DHT22;54618;52.018;5.576;2022-08-21T03:13:20;22.50;63.90
67820;DHT22;54618;52.018;5.576;2022-08-21T03:15:47;22.50;63.90
67820;DHT22;54618;52.018;5.576;2022-08-21T03:18:13;22.50;63.90
67820;DHT22;54618;52.018;5.576;2022-08-21T03:20:41;22.50;63.90
67820;DHT22;54618;52.018;5.576;2022-08-21T03:23:07;22.50;63.90
67820;DHT22;54618;52.018;5.576;2022-08-21T03:25:33;22.50;63.90
67820;DHT22;54618;52.018;5.576;2022-08-21T03:28:01;22.50;63.90
67820;DHT22;54618;52.018;5.576;2022-08-21T03:30:27;22.50;63.90
67820;DHT22;54618;52.018;5.576;2022-08-21T03:32:53;22.50;63.90
67820;DHT22;54618;52.018;5.576;2022-08-21T03:35:20;22.50;63.90
67820;DHT22;54618;52.018;5.576;2022-08-21T03:37:46;22.50;63.90
67820;DHT22;54618;52.018;5.576;2022-08-21T03:40:14;22.50;63.90
67820;DHT22;54618;52.018;5.576;2022-08-21T03:42:40;22.50;63.80
67820;DHT22;54618;52.018;5.576;2022-08-21T03:45:06;22.50;63.80
67820;DHT22;54618;52.018;5.576;2022-08-21T03:47:32;22.50;63.80
67820;DHT22;54618;52.018;5.576;2022-08-21T03:49:58;22.50;63.80
67820;DHT22;54618;52.018;5.576;2022-08-21T03:52:24;22.50;63.80
67820;DHT22;54618;52.018;5.576;2022-08-21T03:54:50;22.50;63.80
67820;DHT22;54618;52.018;5.576;2022-08-21T03:57:16;22.50;63.90
67820;DHT22;54618;52.018;5.576;2022-08-21T03:59:42;22.50;63.80
67820;DHT22;54618;52.018;5.576;2022-08-21T04:02:09;22.50;63.80
67820;DHT22;54618;52.018;5.576;2022-08-21T04:04:35;22.50;63.80
67820;DHT22;54618;52.018;5.576;2022-08-21T04:07:02;22.50;63.80
67820;DHT22;54618;52.018;5.576;2022-08-21T04:09:28;22.50;63.80
67820;DHT22;54618;52.018;5.576;2022-08-21T04:11:53;22.50;63.80
67820;DHT22;54618;52.018;5.576;2022-08-21T04:14:20;22.40;63.80
67820;DHT22;54618;52.018;5.576;2022-08-21T04:16:46;22.40;63.80
67820;DHT22;54618;52.018;5.576;2022-08-21T04:19:12;22.50;63.80
67820;DHT22;54618;52.018;5.576;2022-08-21T04:21:39;22.50;63.80
67820;DHT22;54618;52.018;5.576;2022-08-21T04:24:06;22.50;63.80
67820;DHT22;54618;52.018;5.576;2022-08-21T04:26:33;22.50;63.80
67820;DHT22;54618;52.018;5.576;2022-08-21T04:29:00;22.40;63.70
67820;DHT22;54618;52.018;5.576;2022-08-21T04:31:25;22.50;63.80
67820;DHT22;54618;52.018;5.576;2022-08-21T04:33:51;22.40;63.70
67820;DHT22;54618;52.018;5.576;2022-08-21T04:36:17;22.40;63.70
67820;DHT22;54618;52.018;5.576;2022-08-21T04:38:43;22.40;63.70
67820;DHT22;54618;52.018;5.576;2022-08-21T04:41:09;22.40;63.70
67820;DHT22;54618;52.018;5.576;2022-08-21T04:43:34;22.40;63.70
67820;DHT22;54618;52.018;5.576;2022-08-21T04:46:00;22.40;63.70
67820;DHT22;54618;52.018;5.576;2022-08-21T04:48:27;22.40;63.70
67820;DHT22;54618;52.018;5.576;2022-08-21T04:51:12;22.40;63.70
67820;DHT22;54618;52.018;5.576;2022-08-21T04:56:14;22.40;63.70
67820;DHT22;54618;52.018;5.576;2022-08-21T04:58:41;22.40;63.70
67820;DHT22;54618;52.018;5.576;2022-08-21T05:01:11;22.40;63.70
67820;DHT22;54618;52.018;5.576;2022-08-21T05:03:38;22.40;63.70
67820;DHT22;54618;52.018;5.576;2022-08-21T05:06:09;22.40;63.60
67820;DHT22;54618;52.018;5.576;2022-08-21T05:08:36;22.40;63.70
67820;DHT22;54618;52.018;5.576;2022-08-21T05:11:03;22.40;63.70
67820;DHT22;54618;52.018;5.576;2022-08-21T05:13:29;22.40;63.70
67820;DHT22;54618;52.018;5.576;2022-08-21T05:15:55;22.40;63.70
67820;DHT22;54618;52.018;5.576;2022-08-21T05:18:21;22.40;63.70
67820;DHT22;54618;52.018;5.576;2022-08-21T05:20:46;22.40;63.70
67820;DHT22;54618;52.018;5.576;2022-08-21T05:23:14;22.40;63.70
67820;DHT22;54618;52.018;5.576;2022-08-21T05:25:40;22.40;63.60
67820;DHT22;54618;52.018;5.576;2022-08-21T05:28:05;22.40;63.60
67820;DHT22;54618;52.018;5.576;2022-08-21T05:30:32;22.40;63.80
67820;DHT22;54618;52.018;5.576;2022-08-21T05:32:58;22.40;63.60
67820;DHT22;54618;52.018;5.576;2022-08-21T05:35:25;22.40;63.70
67820;DHT22;54618;52.018;5.576;2022-08-21T05:37:50;22.40;63.60
67820;DHT22;54618;52.018;5.576;2022-08-21T05:40:16;22.40;63.60
67820;DHT22;54618;52.018;5.576;2022-08-21T05:42:43;22.40;63.70
67820;DHT22;54618;52.018;5.576;2022-08-21T05:45:09;22.40;63.70
67820;DHT22;54618;52.018;5.576;2022-08-21T05:47:35;22.40;63.70
67820;DHT22;54618;52.018;5.576;2022-08-21T05:50:00;22.40;63.70
67820;DHT22;54618;52.018;5.576;2022-08-21T05:52:26;22.40;63.70
67820;DHT22;54618;52.018;5.576;2022-08-21T05:54:51;22.40;63.70
67820;DHT22;54618;52.018;5.576;2022-08-21T05:57:20;22.40;63.70
67820;DHT22;54618;52.018;5.576;2022-08-21T05:59:46;22.40;63.70
67820;DHT22;54618;52.018;5.576;2022-08-21T06:02:11;22.40;63.70
67820;DHT22;54618;52.018;5.576;2022-08-21T06:04:38;22.40;63.70
67820;DHT22;54618;52.018;5.576;2022-08-21T06:07:05;22.40;63.70
67820;DHT22;54618;52.018;5.576;2022-08-21T06:09:30;22.40;63.70
67820;DHT22;54618;52.018;5.576;2022-08-21T06:11:56;22.40;63.70
67820;DHT22;54618;52.018;5.576;2022-08-21T06:14:22;22.40;63.70
67820;DHT22;54618;52.018;5.576;2022-08-21T06:16:47;22.40;63.70
67820;DHT22;54618;52.018;5.576;2022-08-21T06:19:13;22.40;63.60
67820;DHT22;54618;52.018;5.576;2022-08-21T06:21:38;22.40;63.70
67820;DHT22;54618;52.018;5.576;2022-08-21T06:24:05;22.40;63.70
67820;DHT22;54618;52.018;5.576;2022-08-21T06:26:31;22.40;63.70
67820;DHT22;54618;52.018;5.576;2022-08-21T06:28:57;22.40;63.60
67820;DHT22;54618;52.018;5.576;2022-08-21T06:31:25;22.40;63.70
67820;DHT22;54618;52.018;5.576;2022-08-21T06:33:51;22.40;63.70
67820;DHT22;54618;52.018;5.576;2022-08-21T06:36:18;22.40;63.70
67820;DHT22;54618;52.018;5.576;2022-08-21T06:38:45;22.40;63.70
67820;DHT22;54618;52.018;5.576;2022-08-21T06:41:11;22.40;63.70
67820;DHT22;54618;52.018;5.576;2022-08-21T06:43:37;22.40;63.70
67820;DHT22;54618;52.018;5.576;2022-08-21T06:46:03;22.40;63.70
67820;DHT22;54618;52.018;5.576;2022-08-21T06:48:29;22.40;63.70
67820;DHT22;54618;52.018;5.576;2022-08-21T06:50:58;22.40;63.70
67820;DHT22;54618;52.018;5.576;2022-08-21T06:53:24;22.40;63.70
67820;DHT22;54618;52.018;5.576;2022-08-21T06:55:50;22.40;63.70
67820;DHT22;54618;52.018;5.576;2022-08-21T06:58:16;22.40;63.70
67820;DHT22;54618;52.018;5.576;2022-08-21T07:00:44;22.40;63.70
67820;DHT22;54618;52.018;5.576;2022-08-21T07:03:27;22.40;63.70
67820;DHT22;54618;52.018;5.576;2022-08-21T07:05:53;22.40;63.80
67820;DHT22;54618;52.018;5.576;2022-08-21T07:08:20;22.40;64.30
67820;DHT22;54618;52.018;5.576;2022-08-21T07:10:46;22.40;63.80
67820;DHT22;54618;52.018;5.576;2022-08-21T07:13:13;22.40;63.80
67820;DHT22;54618;52.018;5.576;2022-08-21T07:15:39;22.40;63.80
67820;DHT22;54618;52.018;5.576;2022-08-21T07:18:04;22.30;63.70
67820;DHT22;54618;52.018;5.576;2022-08-21T07:20:33;22.40;63.80
67820;DHT22;54618;52.018;5.576;2022-08-21T07:23:02;22.40;63.90
67820;DHT22;54618;52.018;5.576;2022-08-21T07:25:28;22.40;63.90
67820;DHT22;54618;52.018;5.576;2022-08-21T07:27:54;22.30;63.80
67820;DHT22;54618;52.018;5.576;2022-08-21T07:30:20;22.30;63.90
67820;DHT22;54618;52.018;5.576;2022-08-21T07:32:46;22.30;63.90
67820;DHT22;54618;52.018;5.576;2022-08-21T07:35:16;22.30;63.90
67820;DHT22;54618;52.018;5.576;2022-08-21T07:37:41;22.30;64.00
67820;DHT22;54618;52.018;5.576;2022-08-21T07:40:07;22.30;64.00
67820;DHT22;54618;52.018;5.576;2022-08-21T07:42:33;22.30;63.90
67820;DHT22;54618;52.018;5.576;2022-08-21T07:44:59;22.30;64.00
67820;DHT22;54618;52.018;5.576;2022-08-21T07:47:24;22.30;64.60
67820;DHT22;54618;52.018;5.576;2022-08-21T07:49:50;22.30;64.00
67820;DHT22;54618;52.018;5.576;2022-08-21T07:52:16;22.30;64.10
67820;DHT22;54618;52.018;5.576;2022-08-21T07:54:42;22.30;64.10
67820;DHT22;54618;52.018;5.576;2022-08-21T07:57:07;22.30;64.10
67820;DHT22;54618;52.018;5.576;2022-08-21T07:59:33;22.30;64.20
67820;DHT22;54618;52.018;5.576;2022-08-21T08:01:58;22.30;64.10
67820;DHT22;54618;52.018;5.576;2022-08-21T08:04:25;22.30;64.10
67820;DHT22;54618;52.018;5.576;2022-08-21T08:06:50;22.40;64.20
67820;DHT22;54618;52.018;5.576;2022-08-21T08:09:16;22.40;64.30
67820;DHT22;54618;52.018;5.576;2022-08-21T08:11:42;22.30;64.20
67820;DHT22;54618;52.018;5.576;2022-08-21T08:14:09;22.30;64.20
67820;DHT22;54618;52.018;5.576;2022-08-21T08:16:35;22.30;64.20
67820;DHT22;54618;52.018;5.576;2022-08-21T08:19:01;22.30;64.30
67820;DHT22;54618;52.018;5.576;2022-08-21T08:21:26;22.30;64.30
67820;DHT22;54618;52.018;5.576;2022-08-21T08:23:53;22.30;64.30
67820;DHT22;54618;52.018;5.576;2022-08-21T08:26:20;22.30;64.30
67820;DHT22;54618;52.018;5.576;2022-08-21T08:28:45;22.30;64.30
67820;DHT22;54618;52.018;5.576;2022-08-21T08:31:13;22.30;64.30
67820;DHT22;54618;52.018;5.576;2022-08-21T08:33:40;22.30;64.30
67820;DHT22;54618;52.018;5.576;2022-08-21T08:36:08;22.40;64.30
67820;DHT22;54618;52.018;5.576;2022-08-21T08:38:37;22.40;64.30
67820;DHT22;54618;52.018;5.576;2022-08-21T08:41:12;22.40;64.20
67820;DHT22;54618;52.018;5.576;2022-08-21T08:43:40;22.40;64.30
67820;DHT22;54618;52.018;5.576;2022-08-21T08:46:12;22.40;64.30
67820;DHT22;54618;52.018;5.576;2022-08-21T08:51:08;22.40;64.30
67820;DHT22;54618;52.018;5.576;2022-08-21T08:53:52;22.40;64.30
67820;DHT22;54618;52.018;5.576;2022-08-21T08:56:24;22.40;64.40
67820;DHT22;54618;52.018;5.576;2022-08-21T08:58:52;22.40;64.40
67820;DHT22;54618;52.018;5.576;2022-08-21T09:01:20;22.40;64.40
67820;DHT22;54618;52.018;5.576;2022-08-21T09:03:47;22.40;64.50
67820;DHT22;54618;52.018;5.576;2022-08-21T09:06:37;22.40;64.50
67820;DHT22;54618;52.018;5.576;2022-08-21T09:12:09;22.40;64.60
67820;DHT22;54618;52.018;5.576;2022-08-21T09:20:17;22.40;64.70
67820;DHT22;54618;52.018;5.576;2022-08-21T09:26:18;22.40;64.80
67820;DHT22;54618;52.018;5.576;2022-08-21T09:28:45;22.40;64.70
67820;DHT22;54618;52.018;5.576;2022-08-21T09:31:34;22.40;64.70
67820;DHT22;54618;52.018;5.576;2022-08-21T09:34:05;22.40;64.70
67820;DHT22;54618;52.018;5.576;2022-08-21T09:36:39;22.40;64.70
67820;DHT22;54618;52.018;5.576;2022-08-21T09:39:07;22.40;64.70
67820;DHT22;54618;52.018;5.576;2022-08-21T09:41:34;22.40;64.70
67820;DHT22;54618;52.018;5.576;2022-08-21T09:44:07;22.40;64.60
67820;DHT22;54618;52.018;5.576;2022-08-21T09:46:34;22.40;64.60
67820;DHT22;54618;52.018;5.576;2022-08-21T09:49:01;22.50;64.60
67820;DHT22;54618;52.018;5.576;2022-08-21T09:51:33;22.40;65.20
67820;DHT22;54618;52.018;5.576;2022-08-21T09:56:37;22.40;64.60
67820;DHT22;54618;52.018;5.576;2022-08-21T09:59:31;22.50;64.60
67820;DHT22;54618;52.018;5.576;2022-08-21T10:01:59;22.50;64.60
67820;DHT22;54618;52.018;5.576;2022-08-21T10:04:34;22.50;64.50
67820;DHT22;54618;52.018;5.576;2022-08-21T10:07:12;22.50;64.50
67820;DHT22;54618;52.018;5.576;2022-08-21T10:09:39;22.50;64.50
67820;DHT22;54618;52.018;5.576;2022-08-21T10:12:21;22.50;64.50
67820;DHT22;54618;52.018;5.576;2022-08-21T10:14:57;22.50;64.50
67820;DHT22;54618;52.018;5.576;2022-08-21T10:20:29;22.50;64.50
67820;DHT22;54618;52.018;5.576;2022-08-21T10:25:42;22.50;64.50
67820;DHT22;54618;52.018;5.576;2022-08-21T10:36:36;22.50;64.50
67820;DHT22;54618;52.018;5.576;2022-08-21T10:39:21;22.50;64.50
67820;DHT22;54618;52.018;5.576;2022-08-21T10:42:28;22.50;64.50
67820;DHT22;54618;52.018;5.576;2022-08-21T10:47:49;22.50;64.60
67820;DHT22;54618;52.018;5.576;2022-08-21T10:50:31;22.50;64.60
67820;DHT22;54618;52.018;5.576;2022-08-21T10:56:14;22.50;64.60
67820;DHT22;54618;52.018;5.576;2022-08-21T10:58:45;22.40;64.60
67820;DHT22;54618;52.018;5.576;2022-08-21T11:01:12;22.50;64.60
67820;DHT22;54618;52.018;5.576;2022-08-21T11:03:45;22.50;64.60
67820;DHT22;54618;52.018;5.576;2022-08-21T11:06:20;22.50;64.60
67820;DHT22;54618;52.018;5.576;2022-08-21T11:08:51;22.40;64.60
67820;DHT22;54618;52.018;5.576;2022-08-21T11:11:29;22.50;64.60
67820;DHT22;54618;52.018;5.576;2022-08-21T11:14:40;22.50;64.60
67820;DHT22;54618;52.018;5.576;2022-08-21T11:17:10;22.50;64.70
67820;DHT22;54618;52.018;5.576;2022-08-21T11:19:50;22.50;64.70
67820;DHT22;54618;52.018;5.576;2022-08-21T11:22:37;22.40;64.70
67820;DHT22;54618;52.018;5.576;2022-08-21T11:25:22;22.50;64.80
67820;DHT22;54618;52.018;5.576;2022-08-21T11:28:02;22.50;64.80
67820;DHT22;54618;52.018;5.576;2022-08-21T11:30:48;22.50;64.90
67820;DHT22;54618;52.018;5.576;2022-08-21T11:33:47;22.50;65.00
67820;DHT22;54618;52.018;5.576;2022-08-21T11:39:29;22.50;65.00
67820;DHT22;54618;52.018;5.576;2022-08-21T11:42:15;22.50;65.00
67820;DHT22;54618;52.018;5.576;2022-08-21T11:45:08;22.40;64.90
67820;DHT22;54618;52.018;5.576;2022-08-21T11:48:00;22.40;65.00
67820;DHT22;54618;52.018;5.576;2022-08-21T11:50:30;22.50;65.00
67820;DHT22;54618;52.018;5.576;2022-08-21T11:53:09;22.50;65.00
67820;DHT22;54618;52.018;5.576;2022-08-21T11:58:43;22.40;65.00
67820;DHT22;54618;52.018;5.576;2022-08-21T12:01:19;22.40;65.00
67820;DHT22;54618;52.018;5.576;2022-08-21T12:04:15;22.40;65.00
67820;DHT22;54618;52.018;5.576;2022-08-21T12:06:42;22.40;65.10
67820;DHT22;54618;52.018;5.576;2022-08-21T12:09:34;22.40;65.10
67820;DHT22;54618;52.018;5.576;2022-08-21T12:12:21;22.40;65.20
67820;DHT22;54618;52.018;5.576;2022-08-21T12:14:49;22.40;65.10
67820;DHT22;54618;52.018;5.576;2022-08-21T12:17:22;22.40;65.10
67820;DHT22;54618;52.018;5.576;2022-08-21T12:23:02;22.40;65.10
67820;DHT22;54618;52.018;5.576;2022-08-21T12:25:40;22.40;65.00
67820;DHT22;54618;52.018;5.576;2022-08-21T12:28:15;22.40;65.00
67820;DHT22;54618;52.018;5.576;2022-08-21T12:30:44;22.40;65.10
67820;DHT22;54618;52.018;5.576;2022-08-21T12:33:31;22.40;65.10
67820;DHT22;54618;52.018;5.576;2022-08-21T12:36:11;22.40;65.10
67820;DHT22;54618;52.018;5.576;2022-08-21T12:39:05;22.40;65.20
67820;DHT22;54618;52.018;5.576;2022-08-21T12:42:15;22.40;65.20
67820;DHT22;54618;52.018;5.576;2022-08-21T12:44:58;22.40;65.20
67820;DHT22;54618;52.018;5.576;2022-08-21T12:47:34;22.50;65.20
67820;DHT22;54618;52.018;5.576;2022-08-21T12:50:11;22.40;65.20
67820;DHT22;54618;52.018;5.576;2022-08-21T12:52:45;22.40;65.10
67820;DHT22;54618;52.018;5.576;2022-08-21T12:55:15;22.40;65.10
67820;DHT22;54618;52.018;5.576;2022-08-21T12:57:51;22.50;65.20
67820;DHT22;54618;52.018;5.576;2022-08-21T13:00:22;22.50;65.10
67820;DHT22;54618;52.018;5.576;2022-08-21T13:02:51;22.50;65.10
67820;DHT22;54618;52.018;5.576;2022-08-21T13:05:29;22.50;65.20
67820;DHT22;54618;52.018;5.576;2022-08-21T13:07:55;22.50;65.20
67820;DHT22;54618;52.018;5.576;2022-08-21T13:10:29;22.50;65.20
67820;DHT22;54618;52.018;5.576;2022-08-21T13:12:58;22.50;65.20
67820;DHT22;54618;52.018;5.576;2022-08-21T13:15:33;22.50;65.20
67820;DHT22;54618;52.018;5.576;2022-08-21T13:18:00;22.50;65.20
67820;DHT22;54618;52.018;5.576;2022-08-21T13:20:34;22.50;65.20
67820;DHT22;54618;52.018;5.576;2022-08-21T13:23:01;22.50;65.20
67820;DHT22;54618;52.018;5.576;2022-08-21T13:25:30;22.50;65.20
67820;DHT22;54618;52.018;5.576;2022-08-21T13:28:08;22.50;65.20
67820;DHT22;54618;52.018;5.576;2022-08-21T13:30:39;22.50;65.20
67820;DHT22;54618;52.018;5.576;2022-08-21T13:33:10;22.50;65.20
67820;DHT22;54618;52.018;5.576;2022-08-21T13:38:35;22.50;65.80
67820;DHT22;54618;52.018;5.576;2022-08-21T13:44:05;22.50;65.10
67820;DHT22;54618;52.018;5.576;2022-08-21T13:46:34;22.50;65.20
67820;DHT22;54618;52.018;5.576;2022-08-21T13:49:02;22.50;65.20
67820;DHT22;54618;52.018;5.576;2022-08-21T13:51:29;22.50;65.20
67820;DHT22;54618;52.018;5.576;2022-08-21T13:53:56;22.50;65.20
67820;DHT22;54618;52.018;5.576;2022-08-21T13:56:41;22.50;65.20
67820;DHT22;54618;52.018;5.576;2022-08-21T13:59:07;22.50;65.10
67820;DHT22;54618;52.018;5.576;2022-08-21T14:01:48;22.50;65.00
67820;DHT22;54618;52.018;5.576;2022-08-21T14:04:22;22.50;64.90
67820;DHT22;54618;52.018;5.576;2022-08-21T14:06:50;22.40;64.90
67820;DHT22;54618;52.018;5.576;2022-08-21T14:09:33;22.50;64.90
67820;DHT22;54618;52.018;5.576;2022-08-21T14:12:02;22.50;65.00
67820;DHT22;54618;52.018;5.576;2022-08-21T14:14:38;22.50;65.00
67820;DHT22;54618;52.018;5.576;2022-08-21T14:17:06;22.50;65.00
67820;DHT22;54618;52.018;5.576;2022-08-21T14:25:06;22.50;65.10
67820;DHT22;54618;52.018;5.576;2022-08-21T14:27:42;22.50;65.10
67820;DHT22;54618;52.018;5.576;2022-08-21T14:32:43;22.50;65.10
67820;DHT22;54618;52.018;5.576;2022-08-21T14:35:10;22.50;65.10
67820;DHT22;54618;52.018;5.576;2022-08-21T14:37:36;22.50;65.10
67820;DHT22;54618;52.018;5.576;2022-08-21T14:40:03;22.50;65.20
67820;DHT22;54618;52.018;5.576;2022-08-21T14:42:29;22.50;65.10
67820;DHT22;54618;52.018;5.576;2022-08-21T14:44:59;22.50;65.10
67820;DHT22;54618;52.018;5.576;2022-08-21T14:47:25;22.50;65.10
67820;DHT22;54618;52.018;5.576;2022-08-21T14:49:51;22.50;65.10
67820;DHT22;54618;52.018;5.576;2022-08-21T14:52:19;22.50;65.20
67820;DHT22;54618;52.018;5.576;2022-08-21T14:54:46;22.50;65.10
67820;DHT22;54618;52.018;5.576;2022-08-21T14:57:11;22.50;65.10
67820;DHT22;54618;52.018;5.576;2022-08-21T14:59:38;22.50;65.10
67820;DHT22;54618;52.018;5.576;2022-08-21T15:02:05;22.50;65.10
67820;DHT22;54618;52.018;5.576;2022-08-21T15:04:32;22.50;65.10
67820;DHT22;54618;52.018;5.576;2022-08-21T15:06:57;22.50;65.10
67820;DHT22;54618;52.018;5.576;2022-08-21T15:09:23;22.50;65.00
67820;DHT22;54618;52.018;5.576;2022-08-21T15:11:52;22.50;65.00
67820;DHT22;54618;52.018;5.576;2022-08-21T15:14:22;22.50;65.00
67820;DHT22;54618;52.018;5.576;2022-08-21T15:16:49;22.50;65.00
67820;DHT22;54618;52.018;5.576;2022-08-21T15:19:17;22.50;64.90
67820;DHT22;54618;52.018;5.576;2022-08-21T15:21:42;22.50;64.90
67820;DHT22;54618;52.018;5.576;2022-08-21T15:24:08;22.50;65.00
67820;DHT22;54618;52.018;5.576;2022-08-21T15:26:35;22.50;65.00
67820;DHT22;54618;52.018;5.576;2022-08-21T15:29:02;22.50;65.00
67820;DHT22;54618;52.018;5.576;2022-08-21T15:31:28;22.50;64.90
67820;DHT22;54618;52.018;5.576;2022-08-21T15:33:54;22.50;64.90
67820;DHT22;54618;52.018;5.576;2022-08-21T15:36:21;22.50;64.90
67820;DHT22;54618;52.018;5.576;2022-08-21T15:38:47;22.50;64.80
67820;DHT22;54618;52.018;5.576;2022-08-21T15:41:13;22.50;64.80
67820;DHT22;54618;52.018;5.576;2022-08-21T15:43:46;22.50;64.80
67820;DHT22;54618;52.018;5.576;2022-08-21T15:46:14;22.40;64.70
67820;DHT22;54618;52.018;5.576;2022-08-21T15:48:40;22.40;64.80
67820;DHT22;54618;52.018;5.576;2022-08-21T15:51:06;22.40;64.80
67820;DHT22;54618;52.018;5.576;2022-08-21T15:53:31;22.40;64.80
67820;DHT22;54618;52.018;5.576;2022-08-21T15:56:00;22.50;64.80
67820;DHT22;54618;52.018;5.576;2022-08-21T15:58:27;22.50;64.70
67820;DHT22;54618;52.018;5.576;2022-08-21T16:00:52;22.50;64.70
67820;DHT22;54618;52.018;5.576;2022-08-21T16:03:18;22.40;64.60
67820;DHT22;54618;52.018;5.576;2022-08-21T16:05:47;22.40;64.60
67820;DHT22;54618;52.018;5.576;2022-08-21T16:08:19;22.40;64.60
67820;DHT22;54618;52.018;5.576;2022-08-21T16:10:44;22.40;64.60
67820;DHT22;54618;52.018;5.576;2022-08-21T16:13:33;22.40;64.60
67820;DHT22;54618;52.018;5.576;2022-08-21T16:16:00;22.50;64.70
67820;DHT22;54618;52.018;5.576;2022-08-21T16:18:26;22.40;64.60
67820;DHT22;54618;52.018;5.576;2022-08-21T16:20:52;22.50;64.60
67820;DHT22;54618;52.018;5.576;2022-08-21T16:23:17;22.50;64.70
67820;DHT22;54618;52.018;5.576;2022-08-21T16:25:43;22.40;64.60
67820;DHT22;54618;52.018;5.576;2022-08-21T16:28:13;22.40;64.60
67820;DHT22;54618;52.018;5.576;2022-08-21T16:30:40;22.40;64.50
67820;DHT22;54618;52.018;5.576;2022-08-21T16:33:13;22.40;64.50
67820;DHT22;54618;52.018;5.576;2022-08-21T16:35:42;22.40;64.50
67820;DHT22;54618;52.018;5.576;2022-08-21T16:38:07;22.40;64.50
67820;DHT22;54618;52.018;5.576;2022-08-21T16:40:35;22.40;64.50
67820;DHT22;54618;52.018;5.576;2022-08-21T16:43:01;22.40;64.50
67820;DHT22;54618;52.018;5.576;2022-08-21T16:45:26;22.40;64.50
67820;DHT22;54618;52.018;5.576;2022-08-21T16:47:52;22.40;64.50